Terminal Aerodrome Forecast
Issued by NWS St Louis, MO

Home | Current Version | Previous Version | Text Only | Print | Product List | Glossary On
Versions: 1 2 3 4 5 6 7 8 9 10 11 12 13 14 15 16 17 18 19 20 21 22 23 24
000
FTUS43 KLSX 301217 AAA
TAFCOU
TAF AMD
KCOU 301217Z 3012/3112 VRB03KT 4SM BR SCT002 BKN050
      TEMPO 3012/3013 1SM BR BKN002
     FM301500 13005KT P6SM SCT035
     FM310100 17005KT P6SM SCT050=

USA.gov is the U.S. government's official web portal to all federal, state and local government web resources and services.